Historique des mesures à Cassis (13260), France
Quotidien Résumé Mars 29, 2018 Unités:  Métrique    US   Métrique/US
« Précédent (Jour)
Suivant (Jour) »
Quotidien Hebdomadaire Mensuel Annuel Période au choix
  Maximum: Minimum: Moyenne:
Température: TemperatureC °C 12.8 °C 14.7 °C
Point de rosée: DewpointC °C 5.6 °C 8.5 °C
Humidité: Humidity % 53 % 64 %
Vitesse du vent: 0 km/h 0 km/h 7.4 km/h
Rafales: 0 km/h - -
Vent:- - SW
Pression: PressurehPa hPa 1002.3 hPa -
Précipitations: 0.0 mm    
Historical Graphs
 
 
Mesures pour : Mars 29, 2018
Heure Temperature Point de rosée Pression Vent Vitesse du vent Rafales Humidité Pluie (par heure) Conditions
TemperatureC °C DewpointC °C PressurehPa hPa Calm     Humidity % HourlyPrecipMM mm SoftwareType W/m2
00:11 13.6 °C 9.0 °C 1007.0 hPa Calm   6.4 km/h 74 % 0.0 mm open2300-1.11 W/m2
01:10 13.4 °C 9.0 °C 1006.7 hPa Calm   6.9 km/h 75 % 0.0 mm open2300-1.11 W/m2
02:10 13.4 °C 9.0 °C 1006.0 hPa Calm     75 % 0.0 mm open2300-1.11 W/m2
03:10 13.1 °C 9.1 °C 1005.6 hPa North 5.1 km/h 6.4 km/h 77 % 0.0 mm open2300-1.11 W/m2
04:10 13.3 °C 9.5 °C 1005.6 hPa Calm     78 % 0.0 mm open2300-1.11 W/m2
05:10 13.1 °C 9.3 °C 1005.0 hPa Calm   12.2 km/h 78 % 0.0 mm open2300-1.11 W/m2
06:10 12.9 °C 9.1 °C 1005.0 hPa ENE 10.9 km/h 10.9 km/h 78 % 0.0 mm open2300-1.11 W/m2
07:10 12.8 °C 8.8 °C 1005.0 hPa NNW 5.1 km/h 6.4 km/h 77 % 0.0 mm open2300-1.11 W/m2
08:10 12.8 °C 8.4 °C 1005.3 hPa WNW 38.3 km/h 38.3 km/h 75 % 0.0 mm open2300-1.11 W/m2
09:10 13.2 °C 8.8 °C 1005.0 hPa WNW 24.8 km/h 24.8 km/h 75 % 0.0 mm open2300-1.11 W/m2
10:10 14.1 °C 9.1 °C 1005.3 hPa WNW 6.4 km/h 6.4 km/h 72 % 0.0 mm open2300-1.11 W/m2
11:12 15.3 °C 9.2 °C 1005.3 hPa WNW 26.7 km/h 26.7 km/h 67 % 0.0 mm open2300-1.11 W/m2
12:12 16.1 °C 9.1 °C 1005.0 hPa Calm   6.4 km/h 63 % 0.0 mm open2300-1.11 W/m2
13:12 18.6 °C 10.7 °C 1004.6 hPa SE 8 km/h 9.8 km/h 60 % 0.0 mm open2300-1.11 W/m2
14:12 19.2 °C 10.7 °C 1004.3 hPa ESE 4.2 km/h 8.9 km/h 58 % 0.0 mm open2300-1.11 W/m2
15:12 19.4 °C 9.8 °C 1003.3 hPa SSW 3.4 km/h 10.3 km/h 54 % 0.0 mm open2300-1.11 W/m2
16:12 19.9 °C 10.0 °C 1002.6 hPa SW 11.6 km/h 11.6 km/h 53 % 0.0 mm open2300-1.11 W/m2
17:11 19.4 °C 10.1 °C 1002.3 hPa SW 6.4 km/h 6.4 km/h 55 % 0.0 mm open2300-1.11 W/m2
18:11 18.0 °C 8.8 °C 1002.3 hPa NW 31.4 km/h 31.4 km/h 55 % 0.0 mm open2300-1.11 W/m2
19:12 17.9 °C 9.2 °C 1002.6 hPa Calm   2.3 km/h 57 % 0.0 mm open2300-1.11 W/m2
20:11 16.1 °C 8.4 °C 1002.9 hPa Calm   4.7 km/h 60 % 0.0 mm open2300-1.11 W/m2
21:11 14.3 °C 6.4 °C 1003.6 hPa NNW 2.9 km/h 5.6 km/h 59 % 0.0 mm open2300-1.11 W/m2
22:10 13.6 °C 6.2 °C 1004.3 hPa Calm   9.3 km/h 61 % 0.0 mm open2300-1.11 W/m2
23:10 13.0 °C 5.6 °C 1004.3 hPa Calm   2.9 km/h 61 % 0.0 mm open2300-1.11 W/m2
Observations météo à CASSIS
WU-History script by Weather Underground - 1 mb